Pinckney, MI (48169)

7:52 PM EST on March 05, 2015 (GMT -0500)
Cobblestone Creek | Change Station
CLOSE
Current Station
Personal Weather Station
Location: Pinckney, MI
Elevation: 920 ft
Nearby Weather Stations

Elev 920 ft 42.45 °N, 83.91 °W | Updated 2 minutes ago

Clear
Clear
11.6 °F
Feels Like 12 °F
N
0.0
Wind Variable Wind from North
Gusts 0.0 mph

Today
High -- | Low -- °F
--% Chance of Precip.
Yesterday
High -- | Low -- °F
Precip. -- in
7:05 AM 6:30 PM
Full, 100% visible
Pressure 30.45 in
Visibility 10.0 miles
Clouds Clear
Windchill 12 °F
Dew Point 3 °F
Humidity 67%
Rainfall in
Snow Depth Not available.
UV 0 out of 12
Pollen .50 out of 12
Air Quality Not available.
Flu Activity Not available.
METAR KOZW 060035Z AUTO 00000KT 10SM CLR M11/M18 A3045 RMK AO2 T11081184

More Conditions Fewer Conditions

Pressure 30.45 in
Visibility 10.0 miles
Clouds Clear
Windchill 12 °F
Dew Point 3 °F
Humidity 67%
Rainfall in
Snow Depth Not available.
UV 0 out of 12
Pollen .50 out of 12
Air Quality Not available.
Flu Activity Not available.
METAR KOZW 060035Z AUTO 00000KT 10SM CLR M11/M18 A3045 RMK AO2 T11081184

More Conditions Fewer Conditions

10-Day Weather Forecast

Almanac

Astronomy

Mar. 05, 2015 Rise Set
Actual Time
Civil Twilight
Nautical Twilight
Astronomical Twilight
Moon
Length of Visible Light
Length of Day
Tomorrow will be .
, % of the Moon is Illuminated

Today's Extremes

State Highs State Lows

Community

WunderPhotos

Upload Photos

1,803,076 photos uploaded!

WunderBlogs® & News

Nearby

Air Quality

  Air Quality AQ Index Pollutant
Not available.

Snow Depth

Station Depth Elevation

Earthquake Activity

City Distance Mag. Time & Date
Minimum magnitude displayed is 2.5.

Coastal Water Temperatures

Place Temperature

Nearby Weather Stations